Terminal Aerodrome Forecast
Issued by NWS

Home | Current Version | Previous Version | Text Only | Print | Product List | Glossary On
Versions: 1 2 3 4 5 6 7 8 9 10 11 12 13
265
FTUS46 KLOX 241724
TAFSBA
TAF
KSBA 241724Z 2418/2518 23005KT P6SM SCT045
     FM242000 24008KT P6SM SCT045
     FM250100 27008KT P6SM BKN040
     FM250500 VRB03KT P6SM BKN080
     FM251000 VRB03KT P6SM BKN020 OVC050=

USA.gov is the U.S. government's official web portal to all federal, state and local government web resources and services.